Aalst

EBAA · Oost-Vlaanderen, Flanders, 比利时

使用的METAR站距离机场29 km。
罗盘
风向 的 风向 的 风向 到 风向 330° 直升机
风: 5 kt, 2 beaufort
0 ft 1.000 2.000 3.000 4.000 5.000
Cloud Cloud Cloud Cloud
SCT 800
Cloud Cloud Cloud Cloud Cloud Cloud
BKN 2.600
METAR EBBR 210950Z 33005KT 310V030 2900 RA SCT008 BKN026 16/15 Q1012 TEMPO BKN008

METAR Aalst - EBAA

Aalst是,比利时中的直升机场。 该机场位于纬度50,93139和经度4,08722。 本场的ICAO机场代码为EBAA。 机场在Bruxelles FIR中。

该航空气象观测是针对布鲁塞尔机场在2024年6月21日 11:50, 当地时间进行的。

机场观察

风向为330°,速度为5 kt。 风向在310°和030°之间变化。

可见度为2,9 km。

有疏云,零星散落的云朵在800 ft的高度 和 碎云在2.600 ft的高度。 破损或更高的上限为2.600 ft。

当前天气为雨。 温度和风寒是16 °C。 露点为15 °C,相对湿度为94%。 海平面上的气压为1012 hPa (QNH)。

发展趋势

  • 暂时的

    可变方向的风很小或没有。 碎云在800 ft的高度.

白天

今天,太阳从05:29升起,在22:01降落。 这适用于Aalst,世界夏令时可能有所不同。 当地时间与世界标准时间之间的时差为+2 小时。 夏令时目前正在进行中。

公司介绍

我们没有关于这个机场的公司信息。

体会

到Vliegles.nl去找飞行课程,跳伞和其他飞行体验。 浏览页面,了解Aalst附近所有可用的活动。 你也可以使用搜索功能来寻找你所在地附近的特定飞行课程、跳伞或其他飞行体验。

乌云

800 ft SCT 疏云,零星散落的云朵
2.600 ft BKN 碎云
800 ft BKN 暂时的 碎云

温度 & 天气

天气
温度 16 °C
露点 15 °C
相对湿度 94%
Kp-index 0 (0-9)

白天

日出
05:28
中午
13:43
日落
21:59 (9:50)

小工具

你想在你的网站上有一个关于Aalst的当前航空天气(METAR)的小部件吗?

显示HTML代码
报告变更